sensor_id;sensor_type;location;lat;lon;timestamp;P1;durP1;ratioP1;P2;durP2;ratioP2
15385;SDS011;7791;47.246;9.648;2023-07-29T00:01:07;2.83;;;1.90;;
15385;SDS011;7791;47.246;9.648;2023-07-29T00:03:46;2.87;;;1.97;;
15385;SDS011;7791;47.246;9.648;2023-07-29T00:06:39;3.20;;;2.10;;
15385;SDS011;7791;47.246;9.648;2023-07-29T00:09:24;3.13;;;2.20;;
15385;SDS011;7791;47.246;9.648;2023-07-29T00:12:10;5.23;;;2.10;;
15385;SDS011;7791;47.246;9.648;2023-07-29T00:14:57;3.70;;;2.17;;
15385;SDS011;7791;47.246;9.648;2023-07-29T00:17:36;3.50;;;2.13;;
15385;SDS011;7791;47.246;9.648;2023-07-29T00:20:11;3.07;;;2.30;;
15385;SDS011;7791;47.246;9.648;2023-07-29T00:22:50;4.10;;;2.03;;
15385;SDS011;7791;47.246;9.648;2023-07-29T00:28:39;4.07;;;1.90;;
15385;SDS011;7791;47.246;9.648;2023-07-29T00:34:09;2.93;;;2.10;;
15385;SDS011;7791;47.246;9.648;2023-07-29T00:37:05;2.87;;;2.10;;
15385;SDS011;7791;47.246;9.648;2023-07-29T00:39:34;3.20;;;2.00;;
15385;SDS011;7791;47.246;9.648;2023-07-29T00:42:17;3.50;;;2.13;;
15385;SDS011;7791;47.246;9.648;2023-07-29T00:45:01;2.67;;;2.10;;
15385;SDS011;7791;47.246;9.648;2023-07-29T00:47:34;3.57;;;2.03;;
15385;SDS011;7791;47.246;9.648;2023-07-29T00:50:18;2.80;;;2.00;;
15385;SDS011;7791;47.246;9.648;2023-07-29T00:53:00;3.40;;;1.83;;
15385;SDS011;7791;47.246;9.648;2023-07-29T00:58:49;4.00;;;1.80;;
15385;SDS011;7791;47.246;9.648;2023-07-29T01:01:51;2.83;;;2.00;;
15385;SDS011;7791;47.246;9.648;2023-07-29T01:04:24;3.97;;;2.00;;
15385;SDS011;7791;47.246;9.648;2023-07-29T01:10:03;2.63;;;2.00;;
15385;SDS011;7791;47.246;9.648;2023-07-29T01:13:01;3.23;;;1.90;;
15385;SDS011;7791;47.246;9.648;2023-07-29T01:15:42;4.67;;;2.10;;
15385;SDS011;7791;47.246;9.648;2023-07-29T01:21:17;4.10;;;2.10;;
15385;SDS011;7791;47.246;9.648;2023-07-29T01:26:45;3.00;;;2.23;;
15385;SDS011;7791;47.246;9.648;2023-07-29T01:29:24;3.73;;;2.17;;
15385;SDS011;7791;47.246;9.648;2023-07-29T01:31:57;2.43;;;1.90;;
15385;SDS011;7791;47.246;9.648;2023-07-29T01:34:41;3.27;;;2.30;;
15385;SDS011;7791;47.246;9.648;2023-07-29T01:37:22;3.30;;;2.13;;
15385;SDS011;7791;47.246;9.648;2023-07-29T01:40:03;3.87;;;2.13;;
15385;SDS011;7791;47.246;9.648;2023-07-29T01:42:46;4.27;;;2.10;;
15385;SDS011;7791;47.246;9.648;2023-07-29T01:50:55;4.40;;;2.53;;
15385;SDS011;7791;47.246;9.648;2023-07-29T01:54:01;4.33;;;2.40;;
15385;SDS011;7791;47.246;9.648;2023-07-29T01:56:41;2.83;;;2.10;;
15385;SDS011;7791;47.246;9.648;2023-07-29T01:59:13;4.87;;;2.73;;
15385;SDS011;7791;47.246;9.648;2023-07-29T02:01:45;4.50;;;2.30;;
15385;SDS011;7791;47.246;9.648;2023-07-29T02:04:20;4.43;;;2.57;;
15385;SDS011;7791;47.246;9.648;2023-07-29T02:06:59;3.97;;;2.30;;
15385;SDS011;7791;47.246;9.648;2023-07-29T02:09:35;4.33;;;2.60;;
15385;SDS011;7791;47.246;9.648;2023-07-29T02:15:07;7.03;;;2.13;;
15385;SDS011;7791;47.246;9.648;2023-07-29T02:17:52;3.30;;;2.40;;
15385;SDS011;7791;47.246;9.648;2023-07-29T02:23:30;3.50;;;2.37;;
15385;SDS011;7791;47.246;9.648;2023-07-29T02:26:06;4.63;;;3.00;;
15385;SDS011;7791;47.246;9.648;2023-07-29T02:28:42;4.83;;;2.80;;
15385;SDS011;7791;47.246;9.648;2023-07-29T02:31:25;3.43;;;2.50;;
15385;SDS011;7791;47.246;9.648;2023-07-29T02:34:18;4.67;;;2.50;;
15385;SDS011;7791;47.246;9.648;2023-07-29T02:36:51;3.47;;;2.33;;
15385;SDS011;7791;47.246;9.648;2023-07-29T02:39:39;3.53;;;2.40;;
15385;SDS011;7791;47.246;9.648;2023-07-29T02:42:12;3.30;;;2.33;;
15385;SDS011;7791;47.246;9.648;2023-07-29T02:47:35;4.27;;;2.53;;
15385;SDS011;7791;47.246;9.648;2023-07-29T02:50:06;3.47;;;2.43;;
15385;SDS011;7791;47.246;9.648;2023-07-29T02:55:35;5.63;;;2.60;;
15385;SDS011;7791;47.246;9.648;2023-07-29T02:58:14;3.57;;;2.40;;
15385;SDS011;7791;47.246;9.648;2023-07-29T03:00:46;3.97;;;2.37;;
15385;SDS011;7791;47.246;9.648;2023-07-29T03:03:11;4.93;;;2.83;;
15385;SDS011;7791;47.246;9.648;2023-07-29T03:05:42;5.10;;;2.53;;
15385;SDS011;7791;47.246;9.648;2023-07-29T03:08:27;4.63;;;2.50;;
15385;SDS011;7791;47.246;9.648;2023-07-29T03:14:09;3.70;;;2.37;;
15385;SDS011;7791;47.246;9.648;2023-07-29T03:16:56;5.57;;;2.80;;
15385;SDS011;7791;47.246;9.648;2023-07-29T03:19:51;4.20;;;2.60;;
15385;SDS011;7791;47.246;9.648;2023-07-29T03:22:30;4.00;;;2.63;;
15385;SDS011;7791;47.246;9.648;2023-07-29T03:25:04;3.80;;;2.50;;
15385;SDS011;7791;47.246;9.648;2023-07-29T03:30:47;5.30;;;3.20;;
15385;SDS011;7791;47.246;9.648;2023-07-29T03:33:35;4.03;;;2.70;;
15385;SDS011;7791;47.246;9.648;2023-07-29T03:36:23;5.27;;;2.63;;
15385;SDS011;7791;47.246;9.648;2023-07-29T03:39:08;3.87;;;2.50;;
15385;SDS011;7791;47.246;9.648;2023-07-29T03:41:57;4.33;;;2.80;;
15385;SDS011;7791;47.246;9.648;2023-07-29T03:44:52;5.00;;;2.97;;
15385;SDS011;7791;47.246;9.648;2023-07-29T03:47:40;4.13;;;2.83;;
15385;SDS011;7791;47.246;9.648;2023-07-29T03:50:24;4.00;;;2.80;;
15385;SDS011;7791;47.246;9.648;2023-07-29T03:52:56;6.37;;;2.80;;
15385;SDS011;7791;47.246;9.648;2023-07-29T03:55:48;6.33;;;3.00;;
15385;SDS011;7791;47.246;9.648;2023-07-29T03:58:31;4.37;;;2.53;;
15385;SDS011;7791;47.246;9.648;2023-07-29T04:01:03;4.10;;;2.57;;
15385;SDS011;7791;47.246;9.648;2023-07-29T04:06:38;5.37;;;2.60;;
15385;SDS011;7791;47.246;9.648;2023-07-29T04:09:11;6.40;;;2.90;;
15385;SDS011;7791;47.246;9.648;2023-07-29T04:11:38;6.20;;;2.87;;
15385;SDS011;7791;47.246;9.648;2023-07-29T04:14:04;4.97;;;2.83;;
15385;SDS011;7791;47.246;9.648;2023-07-29T04:16:31;4.17;;;2.63;;
15385;SDS011;7791;47.246;9.648;2023-07-29T04:19:12;4.20;;;3.00;;
15385;SDS011;7791;47.246;9.648;2023-07-29T04:21:51;4.93;;;3.20;;
15385;SDS011;7791;47.246;9.648;2023-07-29T04:24:46;5.73;;;2.77;;
15385;SDS011;7791;47.246;9.648;2023-07-29T04:27:20;5.67;;;3.33;;
15385;SDS011;7791;47.246;9.648;2023-07-29T04:35:29;5.23;;;3.00;;
15385;SDS011;7791;47.246;9.648;2023-07-29T04:38:14;4.53;;;2.80;;
15385;SDS011;7791;47.246;9.648;2023-07-29T04:41:04;5.60;;;3.07;;
15385;SDS011;7791;47.246;9.648;2023-07-29T04:43:52;4.53;;;2.80;;
15385;SDS011;7791;47.246;9.648;2023-07-29T04:46:39;4.50;;;3.00;;
15385;SDS011;7791;47.246;9.648;2023-07-29T04:49:20;5.57;;;3.60;;
15385;SDS011;7791;47.246;9.648;2023-07-29T04:52:00;6.17;;;3.70;;
15385;SDS011;7791;47.246;9.648;2023-07-29T04:57:30;5.53;;;3.30;;
15385;SDS011;7791;47.246;9.648;2023-07-29T05:00:09;4.87;;;2.93;;
15385;SDS011;7791;47.246;9.648;2023-07-29T05:02:45;5.73;;;3.40;;
15385;SDS011;7791;47.246;9.648;2023-07-29T05:08:29;7.00;;;3.60;;
15385;SDS011;7791;47.246;9.648;2023-07-29T05:17:05;5.57;;;3.43;;
15385;SDS011;7791;47.246;9.648;2023-07-29T05:25:25;6.33;;;3.23;;
15385;SDS011;7791;47.246;9.648;2023-07-29T05:28:11;5.10;;;3.40;;
15385;SDS011;7791;47.246;9.648;2023-07-29T05:30:56;6.53;;;3.80;;
15385;SDS011;7791;47.246;9.648;2023-07-29T05:33:38;6.87;;;4.10;;
15385;SDS011;7791;47.246;9.648;2023-07-29T05:36:17;5.57;;;3.47;;
15385;SDS011;7791;47.246;9.648;2023-07-29T05:39:05;6.17;;;3.40;;
15385;SDS011;7791;47.246;9.648;2023-07-29T05:42:02;8.97;;;3.50;;
15385;SDS011;7791;47.246;9.648;2023-07-29T05:44:33;7.97;;;3.37;;
15385;SDS011;7791;47.246;9.648;2023-07-29T05:47:19;5.77;;;3.33;;
15385;SDS011;7791;47.246;9.648;2023-07-29T05:50:04;5.73;;;3.50;;
15385;SDS011;7791;47.246;9.648;2023-07-29T05:52:32;6.77;;;4.43;;
15385;SDS011;7791;47.246;9.648;2023-07-29T05:55:09;6.83;;;3.50;;
15385;SDS011;7791;47.246;9.648;2023-07-29T05:57:39;4.83;;;3.20;;
15385;SDS011;7791;47.246;9.648;2023-07-29T06:00:12;5.33;;;2.90;;
15385;SDS011;7791;47.246;9.648;2023-07-29T06:02:50;5.20;;;3.30;;
15385;SDS011;7791;47.246;9.648;2023-07-29T06:05:28;4.60;;;3.10;;
15385;SDS011;7791;47.246;9.648;2023-07-29T06:08:05;4.63;;;3.17;;
15385;SDS011;7791;47.246;9.648;2023-07-29T06:10:50;7.77;;;3.70;;
15385;SDS011;7791;47.246;9.648;2023-07-29T06:13:39;4.23;;;3.27;;
15385;SDS011;7791;47.246;9.648;2023-07-29T06:16:10;5.13;;;3.20;;
15385;SDS011;7791;47.246;9.648;2023-07-29T06:18:48;3.80;;;2.90;;
15385;SDS011;7791;47.246;9.648;2023-07-29T06:24:18;3.63;;;2.83;;
15385;SDS011;7791;47.246;9.648;2023-07-29T06:27:04;4.43;;;2.90;;
15385;SDS011;7791;47.246;9.648;2023-07-29T06:29:40;4.70;;;2.77;;
15385;SDS011;7791;47.246;9.648;2023-07-29T06:32:12;4.83;;;2.80;;
15385;SDS011;7791;47.246;9.648;2023-07-29T06:34:44;8.83;;;2.80;;
15385;SDS011;7791;47.246;9.648;2023-07-29T06:43:47;4.07;;;2.70;;
15385;SDS011;7791;47.246;9.648;2023-07-29T06:46:19;5.33;;;2.57;;
15385;SDS011;7791;47.246;9.648;2023-07-29T06:49:07;3.53;;;2.70;;
15385;SDS011;7791;47.246;9.648;2023-07-29T06:51:43;4.77;;;3.03;;
15385;SDS011;7791;47.246;9.648;2023-07-29T06:54:16;3.97;;;2.93;;
15385;SDS011;7791;47.246;9.648;2023-07-29T06:56:58;5.80;;;3.13;;
15385;SDS011;7791;47.246;9.648;2023-07-29T06:59:38;4.00;;;2.90;;
15385;SDS011;7791;47.246;9.648;2023-07-29T07:02:21;5.00;;;2.87;;
15385;SDS011;7791;47.246;9.648;2023-07-29T07:04:53;6.37;;;2.93;;
15385;SDS011;7791;47.246;9.648;2023-07-29T07:07:34;6.73;;;3.83;;
15385;SDS011;7791;47.246;9.648;2023-07-29T07:10:26;4.40;;;3.13;;
15385;SDS011;7791;47.246;9.648;2023-07-29T07:13:30;5.03;;;3.00;;
15385;SDS011;7791;47.246;9.648;2023-07-29T07:16:22;4.77;;;3.07;;
15385;SDS011;7791;47.246;9.648;2023-07-29T07:19:03;7.23;;;2.97;;
15385;SDS011;7791;47.246;9.648;2023-07-29T07:21:38;4.53;;;2.90;;
15385;SDS011;7791;47.246;9.648;2023-07-29T07:27:21;3.75;;;2.88;;
15385;SDS011;7791;47.246;9.648;2023-07-29T07:30:03;4.25;;;2.72;;
15385;SDS011;7791;47.246;9.648;2023-07-29T07:32:31;3.53;;;2.65;;
15385;SDS011;7791;47.246;9.648;2023-07-29T07:35:13;3.30;;;2.72;;
15385;SDS011;7791;47.246;9.648;2023-07-29T07:38:04;4.47;;;2.90;;
15385;SDS011;7791;47.246;9.648;2023-07-29T07:40:46;3.60;;;2.60;;
15385;SDS011;7791;47.246;9.648;2023-07-29T07:43:38;4.55;;;2.65;;
15385;SDS011;7791;47.246;9.648;2023-07-29T07:46:17;3.60;;;2.80;;
15385;SDS011;7791;47.246;9.648;2023-07-29T07:48:53;5.18;;;3.05;;
15385;SDS011;7791;47.246;9.648;2023-07-29T07:51:26;5.05;;;3.40;;
15385;SDS011;7791;47.246;9.648;2023-07-29T07:54:05;5.60;;;2.78;;
15385;SDS011;7791;47.246;9.648;2023-07-29T07:56:42;4.47;;;2.92;;
15385;SDS011;7791;47.246;9.648;2023-07-29T07:59:15;4.95;;;2.67;;
15385;SDS011;7791;47.246;9.648;2023-07-29T08:02:03;4.53;;;3.03;;
15385;SDS011;7791;47.246;9.648;2023-07-29T08:04:34;4.82;;;2.83;;
15385;SDS011;7791;47.246;9.648;2023-07-29T08:07:20;6.43;;;3.08;;
15385;SDS011;7791;47.246;9.648;2023-07-29T08:10:09;4.72;;;3.20;;
15385;SDS011;7791;47.246;9.648;2023-07-29T08:12:42;4.47;;;2.60;;
15385;SDS011;7791;47.246;9.648;2023-07-29T08:15:17;5.03;;;2.95;;
15385;SDS011;7791;47.246;9.648;2023-07-29T08:17:50;3.85;;;2.70;;
15385;SDS011;7791;47.246;9.648;2023-07-29T08:23:37;3.35;;;2.72;;
15385;SDS011;7791;47.246;9.648;2023-07-29T08:26:06;4.03;;;2.78;;
15385;SDS011;7791;47.246;9.648;2023-07-29T08:28:56;5.03;;;2.92;;
15385;SDS011;7791;47.246;9.648;2023-07-29T08:31:38;3.45;;;2.90;;
15385;SDS011;7791;47.246;9.648;2023-07-29T08:34:04;5.68;;;3.00;;
15385;SDS011;7791;47.246;9.648;2023-07-29T08:36:34;4.03;;;2.85;;
15385;SDS011;7791;47.246;9.648;2023-07-29T08:39:17;3.35;;;2.67;;
15385;SDS011;7791;47.246;9.648;2023-07-29T08:42:11;3.70;;;2.92;;
15385;SDS011;7791;47.246;9.648;2023-07-29T08:44:57;4.50;;;2.90;;
15385;SDS011;7791;47.246;9.648;2023-07-29T08:47:32;5.03;;;3.10;;
15385;SDS011;7791;47.246;9.648;2023-07-29T08:50:03;16.92;;;3.90;;
15385;SDS011;7791;47.246;9.648;2023-07-29T08:52:48;8.38;;;3.22;;
15385;SDS011;7791;47.246;9.648;2023-07-29T08:55:25;4.10;;;2.78;;
15385;SDS011;7791;47.246;9.648;2023-07-29T08:58:10;5.55;;;3.00;;
15385;SDS011;7791;47.246;9.648;2023-07-29T09:00:56;18.70;;;4.55;;
15385;SDS011;7791;47.246;9.648;2023-07-29T09:03:37;10.57;;;3.30;;
15385;SDS011;7791;47.246;9.648;2023-07-29T09:09:20;7.20;;;3.00;;
15385;SDS011;7791;47.246;9.648;2023-07-29T09:12:27;4.88;;;2.80;;
15385;SDS011;7791;47.246;9.648;2023-07-29T09:15:02;3.78;;;2.92;;
15385;SDS011;7791;47.246;9.648;2023-07-29T09:20:34;3.53;;;2.83;;
15385;SDS011;7791;47.246;9.648;2023-07-29T09:23:20;3.88;;;2.85;;
15385;SDS011;7791;47.246;9.648;2023-07-29T09:25:51;4.03;;;2.70;;
15385;SDS011;7791;47.246;9.648;2023-07-29T09:28:42;3.15;;;2.60;;
15385;SDS011;7791;47.246;9.648;2023-07-29T09:31:26;4.57;;;2.85;;
15385;SDS011;7791;47.246;9.648;2023-07-29T09:34:17;5.55;;;2.60;;
15385;SDS011;7791;47.246;9.648;2023-07-29T09:42:40;3.88;;;2.75;;
15385;SDS011;7791;47.246;9.648;2023-07-29T09:45:27;4.95;;;3.03;;
15385;SDS011;7791;47.246;9.648;2023-07-29T09:47:59;3.40;;;2.63;;
15385;SDS011;7791;47.246;9.648;2023-07-29T09:53:23;4.70;;;3.38;;
15385;SDS011;7791;47.246;9.648;2023-07-29T09:56:03;4.57;;;3.15;;
15385;SDS011;7791;47.246;9.648;2023-07-29T09:59:05;4.10;;;3.40;;
15385;SDS011;7791;47.246;9.648;2023-07-29T10:01:45;5.85;;;2.95;;
15385;SDS011;7791;47.246;9.648;2023-07-29T10:04:34;5.35;;;3.13;;
15385;SDS011;7791;47.246;9.648;2023-07-29T10:07:14;4.95;;;2.80;;
15385;SDS011;7791;47.246;9.648;2023-07-29T10:09:52;4.32;;;3.20;;
15385;SDS011;7791;47.246;9.648;2023-07-29T10:12:29;4.50;;;3.45;;
15385;SDS011;7791;47.246;9.648;2023-07-29T10:14:59;4.80;;;3.47;;
15385;SDS011;7791;47.246;9.648;2023-07-29T10:17:38;4.65;;;3.22;;
15385;SDS011;7791;47.246;9.648;2023-07-29T10:20:05;5.43;;;3.22;;
15385;SDS011;7791;47.246;9.648;2023-07-29T10:22:40;4.43;;;3.50;;
15385;SDS011;7791;47.246;9.648;2023-07-29T10:25:08;5.68;;;3.05;;
15385;SDS011;7791;47.246;9.648;2023-07-29T10:27:47;4.65;;;3.38;;
15385;SDS011;7791;47.246;9.648;2023-07-29T10:30:26;3.03;;;2.70;;
15385;SDS011;7791;47.246;9.648;2023-07-29T10:33:03;3.83;;;2.80;;
15385;SDS011;7791;47.246;9.648;2023-07-29T10:35:31;3.50;;;2.72;;
15385;SDS011;7791;47.246;9.648;2023-07-29T10:41:02;3.67;;;2.80;;
15385;SDS011;7791;47.246;9.648;2023-07-29T10:43:44;3.58;;;3.08;;
15385;SDS011;7791;47.246;9.648;2023-07-29T10:46:16;3.25;;;2.92;;
15385;SDS011;7791;47.246;9.648;2023-07-29T10:48:55;3.65;;;2.78;;
15385;SDS011;7791;47.246;9.648;2023-07-29T10:51:48;3.70;;;3.00;;
15385;SDS011;7791;47.246;9.648;2023-07-29T10:54:21;3.97;;;3.35;;
15385;SDS011;7791;47.246;9.648;2023-07-29T11:24:34;2.92;;;2.45;;
15385;SDS011;7791;47.246;9.648;2023-07-29T11:27:12;3.72;;;2.95;;
15385;SDS011;7791;47.246;9.648;2023-07-29T11:29:56;5.03;;;3.22;;
15385;SDS011;7791;47.246;9.648;2023-07-29T11:32:46;4.80;;;3.35;;
15385;SDS011;7791;47.246;9.648;2023-07-29T11:35:20;4.55;;;2.90;;
15385;SDS011;7791;47.246;9.648;2023-07-29T11:37:55;4.40;;;3.10;;
15385;SDS011;7791;47.246;9.648;2023-07-29T11:43:23;3.55;;;2.70;;
15385;SDS011;7791;47.246;9.648;2023-07-29T11:46:00;4.00;;;3.00;;
15385;SDS011;7791;47.246;9.648;2023-07-29T11:48:37;2.88;;;2.58;;
15385;SDS011;7791;47.246;9.648;2023-07-29T11:51:15;3.88;;;2.92;;
15385;SDS011;7791;47.246;9.648;2023-07-29T11:53:48;4.60;;;2.90;;
15385;SDS011;7791;47.246;9.648;2023-07-29T11:56:44;3.58;;;2.80;;
15385;SDS011;7791;47.246;9.648;2023-07-29T11:59:26;3.55;;;2.75;;
15385;SDS011;7791;47.246;9.648;2023-07-29T12:02:05;3.22;;;2.90;;
15385;SDS011;7791;47.246;9.648;2023-07-29T12:04:53;3.30;;;2.97;;
15385;SDS011;7791;47.246;9.648;2023-07-29T12:07:28;3.38;;;2.92;;
15385;SDS011;7791;47.246;9.648;2023-07-29T12:10:04;3.75;;;3.05;;
15385;SDS011;7791;47.246;9.648;2023-07-29T12:12:47;3.90;;;3.17;;
15385;SDS011;7791;47.246;9.648;2023-07-29T12:15:38;5.07;;;3.30;;
15385;SDS011;7791;47.246;9.648;2023-07-29T12:18:33;4.68;;;3.50;;
15385;SDS011;7791;47.246;9.648;2023-07-29T12:21:09;4.03;;;3.15;;
15385;SDS011;7791;47.246;9.648;2023-07-29T12:23:50;5.50;;;3.30;;
15385;SDS011;7791;47.246;9.648;2023-07-29T12:26:46;4.97;;;3.33;;
15385;SDS011;7791;47.246;9.648;2023-07-29T12:29:24;4.28;;;3.45;;
15385;SDS011;7791;47.246;9.648;2023-07-29T12:34:52;4.18;;;3.55;;
15385;SDS011;7791;47.246;9.648;2023-07-29T12:37:32;5.97;;;3.38;;
15385;SDS011;7791;47.246;9.648;2023-07-29T12:40:24;6.72;;;3.38;;
15385;SDS011;7791;47.246;9.648;2023-07-29T12:43:08;6.13;;;3.30;;
15385;SDS011;7791;47.246;9.648;2023-07-29T12:48:47;6.15;;;3.63;;
15385;SDS011;7791;47.246;9.648;2023-07-29T12:51:31;6.15;;;3.78;;
15385;SDS011;7791;47.246;9.648;2023-07-29T12:54:04;7.50;;;4.10;;
15385;SDS011;7791;47.246;9.648;2023-07-29T12:56:43;7.95;;;4.45;;
15385;SDS011;7791;47.246;9.648;2023-07-29T12:59:24;6.38;;;4.10;;
15385;SDS011;7791;47.246;9.648;2023-07-29T13:02:16;5.80;;;4.03;;
15385;SDS011;7791;47.246;9.648;2023-07-29T13:04:55;5.83;;;4.40;;
15385;SDS011;7791;47.246;9.648;2023-07-29T13:07:33;8.27;;;3.17;;
15385;SDS011;7791;47.246;9.648;2023-07-29T13:10:07;7.03;;;2.60;;
15385;SDS011;7791;47.246;9.648;2023-07-29T13:13:11;5.20;;;2.63;;
15385;SDS011;7791;47.246;9.648;2023-07-29T13:16:09;7.30;;;3.70;;
15385;SDS011;7791;47.246;9.648;2023-07-29T13:21:37;3.30;;;2.10;;
15385;SDS011;7791;47.246;9.648;2023-07-29T13:24:23;4.30;;;2.43;;
15385;SDS011;7791;47.246;9.648;2023-07-29T13:27:12;3.70;;;2.17;;
15385;SDS011;7791;47.246;9.648;2023-07-29T13:29:47;5.90;;;2.80;;
15385;SDS011;7791;47.246;9.648;2023-07-29T13:32:36;4.10;;;2.40;;
15385;SDS011;7791;47.246;9.648;2023-07-29T13:35:19;6.57;;;4.47;;
15385;SDS011;7791;47.246;9.648;2023-07-29T13:37:51;7.77;;;2.80;;
15385;SDS011;7791;47.246;9.648;2023-07-29T13:40:29;3.97;;;1.93;;
15385;SDS011;7791;47.246;9.648;2023-07-29T13:43:29;2.43;;;1.57;;
15385;SDS011;7791;47.246;9.648;2023-07-29T13:49:02;3.43;;;1.97;;
15385;SDS011;7791;47.246;9.648;2023-07-29T13:51:58;2.53;;;1.70;;
15385;SDS011;7791;47.246;9.648;2023-07-29T13:54:33;4.40;;;3.17;;
15385;SDS011;7791;47.246;9.648;2023-07-29T13:57:05;7.43;;;2.40;;
15385;SDS011;7791;47.246;9.648;2023-07-29T13:59:38;2.07;;;1.60;;
15385;SDS011;7791;47.246;9.648;2023-07-29T14:02:10;2.53;;;1.70;;
15385;SDS011;7791;47.246;9.648;2023-07-29T14:04:52;3.13;;;1.40;;
15385;SDS011;7791;47.246;9.648;2023-07-29T14:07:39;4.53;;;2.17;;
15385;SDS011;7791;47.246;9.648;2023-07-29T14:10:21;3.87;;;2.20;;
15385;SDS011;7791;47.246;9.648;2023-07-29T14:12:54;3.67;;;1.90;;
15385;SDS011;7791;47.246;9.648;2023-07-29T14:15:52;6.20;;;2.47;;
15385;SDS011;7791;47.246;9.648;2023-07-29T14:18:28;4.30;;;2.50;;
15385;SDS011;7791;47.246;9.648;2023-07-29T14:21:08;4.43;;;2.40;;
15385;SDS011;7791;47.246;9.648;2023-07-29T14:24:00;6.47;;;3.40;;
15385;SDS011;7791;47.246;9.648;2023-07-29T14:29:40;4.07;;;2.67;;
15385;SDS011;7791;47.246;9.648;2023-07-29T14:32:23;4.87;;;2.40;;
15385;SDS011;7791;47.246;9.648;2023-07-29T14:35:03;5.07;;;2.90;;
15385;SDS011;7791;47.246;9.648;2023-07-29T14:37:43;4.23;;;2.97;;
15385;SDS011;7791;47.246;9.648;2023-07-29T14:40:28;4.20;;;2.80;;
15385;SDS011;7791;47.246;9.648;2023-07-29T14:43:13;3.63;;;2.57;;
15385;SDS011;7791;47.246;9.648;2023-07-29T14:46:00;7.17;;;2.70;;
15385;SDS011;7791;47.246;9.648;2023-07-29T14:48:27;5.73;;;3.40;;
15385;SDS011;7791;47.246;9.648;2023-07-29T14:51:07;6.63;;;3.85;;
15385;SDS011;7791;47.246;9.648;2023-07-29T14:53:46;5.87;;;3.30;;
15385;SDS011;7791;47.246;9.648;2023-07-29T14:59:21;6.23;;;2.90;;
15385;SDS011;7791;47.246;9.648;2023-07-29T15:01:50;4.80;;;3.10;;
15385;SDS011;7791;47.246;9.648;2023-07-29T15:04:26;6.70;;;3.20;;
15385;SDS011;7791;47.246;9.648;2023-07-29T15:07:01;4.93;;;2.90;;
15385;SDS011;7791;47.246;9.648;2023-07-29T15:12:40;4.20;;;2.70;;
15385;SDS011;7791;47.246;9.648;2023-07-29T15:15:18;4.20;;;2.63;;
15385;SDS011;7791;47.246;9.648;2023-07-29T15:18:01;5.43;;;2.90;;
15385;SDS011;7791;47.246;9.648;2023-07-29T15:23:25;4.17;;;2.83;;
15385;SDS011;7791;47.246;9.648;2023-07-29T15:26:16;4.53;;;2.83;;
15385;SDS011;7791;47.246;9.648;2023-07-29T15:29:12;4.60;;;2.73;;
15385;SDS011;7791;47.246;9.648;2023-07-29T15:32:02;4.03;;;2.80;;
15385;SDS011;7791;47.246;9.648;2023-07-29T15:34:34;4.03;;;2.60;;
15385;SDS011;7791;47.246;9.648;2023-07-29T15:37:18;4.03;;;2.77;;
15385;SDS011;7791;47.246;9.648;2023-07-29T15:40:01;6.20;;;2.53;;
15385;SDS011;7791;47.246;9.648;2023-07-29T15:42:41;3.20;;;2.63;;
15385;SDS011;7791;47.246;9.648;2023-07-29T15:45:25;3.90;;;2.70;;
15385;SDS011;7791;47.246;9.648;2023-07-29T15:50:54;2.47;;;1.87;;
15385;SDS011;7791;47.246;9.648;2023-07-29T15:53:51;4.90;;;2.63;;
15385;SDS011;7791;47.246;9.648;2023-07-29T15:56:32;3.53;;;2.10;;
15385;SDS011;7791;47.246;9.648;2023-07-29T15:59:11;2.83;;;2.10;;
15385;SDS011;7791;47.246;9.648;2023-07-29T16:01:53;3.47;;;2.30;;
15385;SDS011;7791;47.246;9.648;2023-07-29T16:04:41;3.27;;;2.07;;
15385;SDS011;7791;47.246;9.648;2023-07-29T16:07:23;3.77;;;2.27;;
15385;SDS011;7791;47.246;9.648;2023-07-29T16:09:53;3.43;;;2.47;;
15385;SDS011;7791;47.246;9.648;2023-07-29T16:12:41;3.63;;;2.10;;
15385;SDS011;7791;47.246;9.648;2023-07-29T16:15:10;3.43;;;2.07;;
15385;SDS011;7791;47.246;9.648;2023-07-29T16:17:37;4.00;;;2.27;;
15385;SDS011;7791;47.246;9.648;2023-07-29T16:20:11;4.00;;;2.33;;
15385;SDS011;7791;47.246;9.648;2023-07-29T16:22:57;5.13;;;2.23;;
15385;SDS011;7791;47.246;9.648;2023-07-29T16:25:25;6.27;;;2.30;;
15385;SDS011;7791;47.246;9.648;2023-07-29T16:27:56;3.40;;;2.50;;
15385;SDS011;7791;47.246;9.648;2023-07-29T16:30:53;5.90;;;3.10;;
15385;SDS011;7791;47.246;9.648;2023-07-29T16:36:39;4.37;;;2.70;;
15385;SDS011;7791;47.246;9.648;2023-07-29T16:39:07;3.73;;;3.00;;
15385;SDS011;7791;47.246;9.648;2023-07-29T16:41:33;4.20;;;2.70;;
15385;SDS011;7791;47.246;9.648;2023-07-29T16:43:58;3.93;;;2.50;;
15385;SDS011;7791;47.246;9.648;2023-07-29T16:46:24;5.37;;;2.60;;
15385;SDS011;7791;47.246;9.648;2023-07-29T16:48:50;3.43;;;2.40;;
15385;SDS011;7791;47.246;9.648;2023-07-29T16:54:39;3.30;;;2.50;;
15385;SDS011;7791;47.246;9.648;2023-07-29T16:57:05;3.37;;;2.20;;
15385;SDS011;7791;47.246;9.648;2023-07-29T16:59:31;3.60;;;2.73;;
15385;SDS011;7791;47.246;9.648;2023-07-29T17:01:57;3.60;;;2.50;;
15385;SDS011;7791;47.246;9.648;2023-07-29T17:04:25;3.93;;;2.40;;
15385;SDS011;7791;47.246;9.648;2023-07-29T17:06:51;2.97;;;2.27;;
15385;SDS011;7791;47.246;9.648;2023-07-29T17:09:18;3.10;;;2.20;;
15385;SDS011;7791;47.246;9.648;2023-07-29T17:11:52;2.80;;;2.07;;
15385;SDS011;7791;47.246;9.648;2023-07-29T17:14:28;2.97;;;2.10;;
15385;SDS011;7791;47.246;9.648;2023-07-29T17:16:58;3.00;;;2.10;;
15385;SDS011;7791;47.246;9.648;2023-07-29T17:19:32;2.80;;;2.00;;
15385;SDS011;7791;47.246;9.648;2023-07-29T17:25:29;3.00;;;1.97;;
15385;SDS011;7791;47.246;9.648;2023-07-29T17:28:02;3.67;;;2.30;;
15385;SDS011;7791;47.246;9.648;2023-07-29T17:30:32;3.70;;;1.90;;
15385;SDS011;7791;47.246;9.648;2023-07-29T17:33:05;2.57;;;1.60;;
15385;SDS011;7791;47.246;9.648;2023-07-29T17:35:44;2.10;;;1.63;;
15385;SDS011;7791;47.246;9.648;2023-07-29T17:41:09;2.67;;;1.90;;
15385;SDS011;7791;47.246;9.648;2023-07-29T17:43:37;2.60;;;1.80;;
15385;SDS011;7791;47.246;9.648;2023-07-29T17:46:07;2.57;;;1.50;;
15385;SDS011;7791;47.246;9.648;2023-07-29T17:48:56;3.70;;;1.60;;
15385;SDS011;7791;47.246;9.648;2023-07-29T17:51:42;2.30;;;1.33;;
15385;SDS011;7791;47.246;9.648;2023-07-29T17:54:20;2.30;;;1.50;;
15385;SDS011;7791;47.246;9.648;2023-07-29T17:56:56;2.30;;;1.70;;
15385;SDS011;7791;47.246;9.648;2023-07-29T17:59:44;2.53;;;1.80;;
15385;SDS011;7791;47.246;9.648;2023-07-29T18:02:21;3.47;;;1.57;;
15385;SDS011;7791;47.246;9.648;2023-07-29T18:05:18;2.33;;;1.40;;
15385;SDS011;7791;47.246;9.648;2023-07-29T18:10:32;2.73;;;1.63;;
15385;SDS011;7791;47.246;9.648;2023-07-29T18:13:16;1.93;;;1.43;;
15385;SDS011;7791;47.246;9.648;2023-07-29T18:16:01;2.70;;;1.77;;
15385;SDS011;7791;47.246;9.648;2023-07-29T18:18:41;2.00;;;1.53;;
15385;SDS011;7791;47.246;9.648;2023-07-29T18:21:18;2.63;;;1.60;;
15385;SDS011;7791;47.246;9.648;2023-07-29T18:24:01;3.30;;;1.70;;
15385;SDS011;7791;47.246;9.648;2023-07-29T18:26:46;2.17;;;1.77;;
15385;SDS011;7791;47.246;9.648;2023-07-29T18:29:22;2.50;;;1.70;;
15385;SDS011;7791;47.246;9.648;2023-07-29T18:32:14;2.70;;;1.60;;
15385;SDS011;7791;47.246;9.648;2023-07-29T18:34:50;3.97;;;1.77;;
15385;SDS011;7791;47.246;9.648;2023-07-29T18:40:25;1.77;;;1.50;;
15385;SDS011;7791;47.246;9.648;2023-07-29T18:43:08;2.23;;;1.40;;
15385;SDS011;7791;47.246;9.648;2023-07-29T18:45:50;2.03;;;1.50;;
15385;SDS011;7791;47.246;9.648;2023-07-29T18:48:37;4.17;;;1.63;;
15385;SDS011;7791;47.246;9.648;2023-07-29T18:51:15;3.67;;;1.93;;
15385;SDS011;7791;47.246;9.648;2023-07-29T18:53:51;2.97;;;1.50;;
15385;SDS011;7791;47.246;9.648;2023-07-29T18:56:32;1.80;;;1.53;;
15385;SDS011;7791;47.246;9.648;2023-07-29T18:59:16;1.73;;;1.47;;
15385;SDS011;7791;47.246;9.648;2023-07-29T19:02:10;3.13;;;2.23;;
15385;SDS011;7791;47.246;9.648;2023-07-29T19:05:01;1.80;;;1.50;;
15385;SDS011;7791;47.246;9.648;2023-07-29T19:07:33;2.90;;;1.50;;
15385;SDS011;7791;47.246;9.648;2023-07-29T19:10:20;2.83;;;1.33;;
15385;SDS011;7791;47.246;9.648;2023-07-29T19:13:09;2.63;;;1.50;;